Flight Track Log - Related Links

Times and Time Zones

All times are in EDT time to prevent confusion due to time zone crossing. See the N3192W flight status page for this flight to view local times or setup timezone preferences in your user account.

Time Position Orientation Groundspeed Altitude Reporting Facility
EDT Latitude Longitude Course Direction KTS MPH feet Rate Location/Type
Sun 11:45:54 AM 34.2833 -84.4333 180° South 89 102 2,100  Level Atlanta TRACON
Sun 11:46:48 AM 34.2667 -84.4333 180° South 97 112 2,900 789 Climbing Atlanta TRACON
Sun 11:47:48 AM 34.2333 -84.4167 158° South 106 122 3,600 700 Climbing Atlanta TRACON
Sun 11:48:48 AM 34.2000 -84.4167 180° South 106 122 4,300 650 Climbing Atlanta TRACON
Sun 11:49:48 AM 34.1833 -84.4167 180° South 105 121 4,900 350 Climbing Atlanta TRACON
Sun 11:50:48 AM 34.1500 -84.4167 180° South 138 159 5,000 50 Climbing Atlanta TRACON
Sun 11:51:48 AM 34.1000 -84.4333 195° South 152 175 5,000  Level Atlanta TRACON
Sun 11:52:48 AM 34.0667 -84.4333 180° South 156 180 5,000  Level Atlanta TRACON
Sun 11:53:48 AM 34.0167 -84.4333 180° South 155 178 5,000  Level Atlanta TRACON
Sun 11:54:48 AM 33.9667 -84.4333 180° South 160 184 5,000  Level Atlanta TRACON
Sun 11:55:48 AM 33.9333 -84.4333 180° South 160 184 5,000  Level Atlanta TRACON
Sun 11:56:48 AM 33.8833 -84.4167 165° South 156 180 5,000  Level Atlanta TRACON
Sun 11:57:48 AM 33.8500 -84.4167 180° South 154 177 5,000  Level Atlanta TRACON
Sun 11:58:48 AM 33.8000 -84.4000 165° South 156 180 5,000  Level Atlanta TRACON
Sun 11:59:49 AM 33.7667 -84.4000 180° South 153 176 5,000  Level Atlanta TRACON
Sun 12:00:48 PM 33.7167 -84.3833 165° South 150 173 5,000  Level Atlanta TRACON
Sun 12:01:43 PM 33.6833 -84.3833 180° South 151 174 5,000  Level Atlanta TRACON
Sun 12:02:48 PM 33.6333 -84.3833 180° South 158 182 5,000  Level Atlanta TRACON
Sun 12:03:48 PM 33.6000 -84.3833 180° South 154 177 5,000  Level Atlanta TRACON
Sun 12:04:48 PM 33.5500 -84.3833 180° South 150 173 5,000  Level Atlanta TRACON
Sun 12:05:48 PM 33.5167 -84.3833 180° South 151 174 5,000  Level Atlanta TRACON
Sun 12:06:43 PM 33.4667 -84.3667 164° South 151 174 5,000 157 Level Atlanta TRACON
Sun 12:07:43 PM 33.4333 -84.3500 157° South 147 169 5,300 400 Climbing Atlanta TRACON
Sun 12:08:43 PM 33.4000 -84.3167 140° Southeast 143 165 5,800 368 Climbing Atlanta TRACON
Sun 12:09:37 PM 33.3833 -84.2833 121° Southeast 152 175 6,000 105 Climbing Atlanta TRACON
Sun 12:10:37 PM 33.3500 -84.2667 157° South 166 191 6,000 200 Level Atlanta TRACON
Sun 12:11:37 PM 33.3000 -84.2333 151° Southeast 157 181 6,400 450 Climbing Atlanta TRACON
Sun 12:12:37 PM 33.2667 -84.2000 140° Southeast 144 166 6,900 300 Climbing Atlanta TRACON
Sun 12:13:37 PM 33.2333 -84.1667 140° Southeast 163 188 7,000 50 Climbing Atlanta TRACON
Sun 12:14:37 PM 33.2000 -84.1333 140° Southeast 171 197 7,000  Level Atlanta TRACON
Sun 12:15:37 PM 33.1667 -84.1000 140° Southeast 165 190 7,000  Level Atlanta TRACON
Sun 12:16:37 PM 33.1333 -84.0667 140° Southeast 166 191 7,000  Level Atlanta TRACON
Sun 12:17:37 PM 33.1000 -84.0333 140° Southeast 171 197 7,000  Level Atlanta TRACON
Sun 12:18:37 PM 33.0667 -84.0000 140° Southeast 173 199 7,000  Level Atlanta TRACON
Sun 12:19:37 PM 33.0167 -83.9500 140° Southeast 173 199 7,000  Level Atlanta TRACON
Sun 12:20:37 PM 32.9833 -83.9167 140° Southeast 173 199 7,000  Level Atlanta TRACON
Sun 12:21:37 PM 32.9500 -83.8833 140° Southeast 174 200 7,000  Level Atlanta TRACON
Sun 12:22:37 PM 32.9000 -83.8500 151° Southeast 174 200 7,000  Level Atlanta TRACON
Sun 12:23:37 PM 32.8667 -83.8167 140° Southeast 172 198 7,000  Level Atlanta TRACON
Sun 12:24:37 PM 32.8333 -83.7833 140° Southeast 171 197 7,000  Level Atlanta TRACON
Sun 12:25:37 PM 32.8000 -83.7500 140° Southeast 170 196 7,000  Level Atlanta TRACON
Sun 12:26:43 PM 32.7500 -83.7000 140° Southeast 168 193 7,000  Level Atlanta TRACON
Sun 12:27:43 PM 32.7167 -83.6667 140° Southeast 155 178 7,000 -34 Level Atlanta TRACON
Sun 12:29:37 PM 32.6333 -83.6167 153° Southeast 162 186 6,900 -34 Descending Atlanta TRACON
Sun 12:30:37 PM 32.6000 -83.6000 157° South 165 190 6,900 50 Level Atlanta TRACON
Sun 12:31:37 PM 32.5500 -83.6000 180° South 165 190 7,000 50 Climbing Atlanta TRACON
Sun 12:32:37 PM 32.5000 -83.5667 151° Southeast 167 192 7,000  Level Atlanta TRACON
Sun 12:33:37 PM 32.4667 -83.5500 157° South 169 194 7,000 -53 Level Atlanta TRACON
Sun 12:34:31 PM 32.4167 -83.5333 164° South 170 196 6,900  Descending Atlanta TRACON
Sun 12:35:31 PM 32.3833 -83.5167 157° South 169 194 7,000 103 Climbing Atlanta TRACON
Sun 12:36:28 PM 32.3406 -83.5000 162° South 168 193 7,100  Climbing Jacksonville Center
Sun 12:37:28 PM 32.2967 -83.4825 161° South 175 201 7,000 -50 Descending Jacksonville Center
Sun 12:38:27 PM 32.2531 -83.4650 161° South 169 194 7,000  Level Jacksonville Center
Sun 12:39:28 PM 32.2092 -83.4475 161° South 169 194 7,000  Level Jacksonville Center
Sun 12:40:28 PM 32.1653 -83.4300 161° South 169 194 7,000  Level Jacksonville Center
Sun 12:41:27 PM 32.1175 -83.4103 161° South 164 189 7,000  Level Jacksonville Center
Sun 12:42:27 PM 32.0758 -83.3928 160° South 164 189 7,000  Level Jacksonville Center
Sun 12:43:27 PM 32.0319 -83.3728 159° South 164 189 7,000  Level Jacksonville Center
Sun 12:44:27 PM 31.9861 -83.3531 160° South 164 189 7,000  Level Jacksonville Center
Sun 12:45:28 PM 31.9444 -83.3358 161° South 164 189 7,000  Level Jacksonville Center
Sun 12:46:28 PM 31.8986 -83.3183 162° South 164 189 7,000  Level Jacksonville Center
Sun 12:47:28 PM 31.8547 -83.2986 159° South 164 189 7,000 -82 Level Jacksonville Center
Sun 12:47:41 PM 31.8464 -83.2961 166° South 169 194 6,900  Descending Jacksonville Center
Sun 12:48:27 PM 31.8131 -83.2814 159° South 164 189 7,000  Climbing Jacksonville Center
Sun 12:48:47 PM 31.7944 -83.2739 161° South 169 194 6,900  Descending Jacksonville Center
Sun 12:49:28 PM 31.7672 -83.2639 163° South 164 189 7,000  Climbing Jacksonville Center
Sun 12:49:48 PM 31.7525 -83.2592 165° South 166 191 6,900  Descending Jacksonville Center
Sun 12:50:27 PM 31.7233 -83.2467 160° South 164 189 7,000 100 Climbing Jacksonville Center
Sun 12:50:48 PM 31.7067 -83.2394 160° South 168 193 7,000  Level Jacksonville Center
Sun 12:51:27 PM 31.6797 -83.2269 158° South 164 189 7,000  Level Jacksonville Center
Sun 12:51:49 PM 31.6650 -83.2244 172° South 169 194 7,000  Level Jacksonville Center
Sun 12:52:27 PM 31.6358 -83.2072 153° Southeast 164 189 7,000 -98 Level Jacksonville Center
Sun 12:52:50 PM 31.6169 -83.2025 168° South 169 194 6,900  Descending Jacksonville Center
Sun 12:53:28 PM 31.5900 -83.1900 158° South 164 189 7,000 100 Climbing Jacksonville Center
Sun 12:53:50 PM 31.5711 -83.1853 168° South 167 192 7,000  Level Jacksonville Center
Sun 12:54:27 PM 31.5461 -83.1728 157° South 164 189 7,000  Level Jacksonville Center
Sun 12:54:51 PM 31.5272 -83.1681 168° South 168 193 7,000  Level Jacksonville Center
Sun 12:55:28 PM 31.5022 -83.1558 157° South 169 194 7,000 -98 Level Jacksonville Center
Sun 12:55:52 PM 31.4814 -83.1483 163° South 169 194 6,900  Descending Jacksonville Center
Sun 12:56:27 PM 31.4586 -83.1361 155° Southeast 164 189 7,000  Climbing Jacksonville Center
Sun 12:56:52 PM 31.4397 -83.1289 162° South 166 191 6,900  Descending Jacksonville Center
Sun 12:57:28 PM 31.4147 -83.1164 157° South 164 189 7,000  Climbing Jacksonville Center
Sun 12:57:53 PM 31.3939 -83.1117 169° South 169 194 6,900  Descending Jacksonville Center
Sun 12:58:53 PM 31.3500 -83.0919 159° South 170 196 7,000  Climbing Jacksonville Center
Sun 12:59:54 PM 31.3042 -83.0750 162° South 171 197 6,900 -50 Descending Jacksonville Center
Sun 01:00:54 PM 31.2581 -83.0556 160° South 170 196 6,900  Level Jacksonville Center
Sun 01:01:55 PM 31.2144 -83.0383 161° South 169 194 6,900  Level Jacksonville Center
Sun 01:02:56 PM 31.1706 -83.0189 159° South 168 193 6,900  Level Jacksonville Center
Sun 01:03:56 PM 31.1247 -83.0017 162° South 167 192 6,900  Level Jacksonville Center
Sun 01:04:57 PM 31.0808 -82.9822 159° South 170 196 6,900  Level Jacksonville Center
Sun 01:05:57 PM 31.0328 -82.9653 163° South 171 197 6,900 50 Level Jacksonville Center
Sun 01:06:58 PM 30.9911 -82.9458 158° South 169 194 7,000  Climbing Jacksonville Center
Sun 01:07:59 PM 30.9431 -82.9314 166° South 167 192 6,900 -67 Descending Jacksonville Center
Sun 01:08:27 PM 30.9200 -82.9242 165° South 166 191 6,900  Level Jacksonville Center
Sun 01:09:28 PM 30.8783 -82.9022 156° South 181 208 6,900  Level Jacksonville Center
Sun 01:10:27 PM 30.8386 -82.8853 160° South 181 208 6,900  Level Jacksonville Center
Sun 01:11:27 PM 30.7969 -82.8708 163° South 171 197 6,900  Level Jacksonville Center
Sun 01:12:27 PM 30.7531 -82.8492 157° South 165 190 6,900  Level Jacksonville Center
Sun 01:13:27 PM 30.7092 -82.8297 159° South 165 190 6,900 50 Level Jacksonville Center
Sun 01:14:27 PM 30.6633 -82.8153 165° South 165 190 7,000  Climbing Jacksonville Center
Sun 01:15:28 PM 30.6194 -82.7961 159° South 165 190 6,900 -50 Descending Jacksonville Center
Sun 01:16:27 PM 30.5756 -82.7792 162° South 165 190 6,900  Level Jacksonville Center
Sun 01:17:27 PM 30.5358 -82.7600 157° South 165 190 6,900  Level Jacksonville Center
Sun 01:18:27 PM 30.4919 -82.7478 167° South 165 190 6,900  Level Jacksonville Center
Sun 01:19:27 PM 30.4481 -82.7408 172° South 165 190 6,900  Level Jacksonville Center
Sun 01:20:27 PM 30.4042 -82.7383 177° South 158 182 6,900 70 Level Jacksonville Center
Sun 01:20:53 PM 30.3792 -82.7361 176° South 164 189 7,000  Climbing Jacksonville Center
Sun 01:21:27 PM 30.3583 -82.7264 158° South 158 182 6,900  Descending Jacksonville Center
Sun 01:22:13 PM 30.3186 -82.7242 177° South 162 186 7,000  Climbing Jacksonville Center
Sun 01:22:27 PM 30.3164 -82.7194 119° Southeast 158 182 6,900  Descending Jacksonville Center
Sun 01:23:14 PM 30.2747 -82.7194 180° South 161 185 7,000  Climbing Jacksonville Center
Sun 01:23:27 PM 30.2686 -82.7194 180° South 158 182 6,900  Descending Jacksonville Center
Sun 01:24:15 PM 30.2289 -82.7028 160° South 167 192 7,000  Climbing Jacksonville Center
Sun 01:24:27 PM 30.2267 -82.6978 117° Southeast 158 182 6,900  Descending Jacksonville Center
Sun 01:25:16 PM 30.1869 -82.6764 155° Southeast 172 198 7,000  Climbing Jacksonville Center
Sun 01:25:27 PM 30.1869 -82.6692 90° East 169 194 6,900  Descending Jacksonville Center
Sun 01:26:17 PM 30.1453 -82.6547 163° South 164 189 7,000  Climbing Jacksonville Center
Sun 01:26:27 PM 30.1411 -82.6500 136° Southeast 169 194 6,900  Descending Jacksonville Center
Sun 01:27:18 PM 30.0992 -82.6478 177° South 162 186 7,000 54 Climbing Jacksonville Center
Sun 01:28:19 PM 30.0533 -82.6381 170° South 163 188 7,000  Level Jacksonville Center
Sun 01:29:14 PM 30.0117 -82.6311 172° South 163 188 7,000 -88 Level Jacksonville Center
Sun 01:29:27 PM 30.0072 -82.6264 137° Southeast 164 189 6,900 -82 Descending Jacksonville Center
Sun 01:30:27 PM 29.9614 -82.6242 178° South 164 189 6,900 52 Level Jacksonville Center
Sun 01:31:22 PM 29.9156 -82.6289 185° South 164 189 7,000  Climbing Jacksonville Center
Sun 01:32:27 PM 29.8736 -82.6244 175° South 159 183 6,900  Descending Jacksonville Center
Sun 01:33:24 PM 29.8256 -82.5981 155° Southeast 169 194 7,000 51 Climbing Jacksonville Center
Sun 01:34:25 PM 29.7839 -82.5744 154° Southeast 169 194 7,000  Level Jacksonville Center
Sun 01:35:26 PM 29.7419 -82.5528 156° South 169 194 7,000  Level Jacksonville Center
Sun 01:36:27 PM 29.7022 -82.5267 150° Southeast 168 193 7,000  Level Jacksonville Center
Sun 01:37:28 PM 29.6625 -82.4911 142° Southeast 174 200 7,000  Level Jacksonville Center
Sun 01:38:23 PM 29.6250 -82.4697 154° Southeast 164 189 7,000  Level Jacksonville Center
Sun 01:39:30 PM 29.5767 -82.4531 163° South 166 191 7,000  Level Jacksonville Center
Sun 01:40:31 PM 29.5308 -82.4486 175° South 163 188 7,000  Level Jacksonville Center
Sun 01:41:32 PM 29.4850 -82.4369 168° South 163 188 7,000  Level Jacksonville Center
Sun 01:42:33 PM 29.4411 -82.4181 159° South 163 188 7,000  Level Jacksonville Center
Sun 01:43:34 PM 29.4011 -82.3897 148° Southeast 169 194 7,000  Level Jacksonville Center
Sun 01:44:35 PM 29.3614 -82.3611 148° Southeast 169 194 7,000  Level Jacksonville Center
Sun 01:45:36 PM 29.3236 -82.3328 147° Southeast 164 189 7,000 -469 Level Jacksonville Center
Sun 01:46:43 PM 29.2733 -82.2950 147° Southeast 199 229 6,000 -844 Descending Jacksonville Center
Sun 01:47:44 PM 29.2253 -82.2644 151° Southeast 198 228 5,200 -422 Descending Jacksonville Center
Sun 01:48:51 PM 29.1792 -82.2267 144° Southeast 175 201 5,100 -47 Descending Jacksonville Center
Sun 01:49:53 PM 29.1414 -82.1961 145° Southeast 165 190 5,100  Level Jacksonville Center
Sun 01:50:53 PM 29.1017 -82.1653 146° Southeast 163 188 5,100  Level Jacksonville Center
Sun 01:51:54 PM 29.0597 -82.1372 150° Southeast 163 188 5,100  Level Jacksonville Center
Sun 01:52:55 PM 29.0219 -82.1089 147° Southeast 164 189 5,100  Level Jacksonville Center
Sun 01:55:12 PM 28.9333 -82.0333 143° Southeast 165 190 5,100  Level Orlando TRACON
Sun 01:56:12 PM 28.9000 -82.0000 139° Southeast 163 188 5,100  Level Orlando TRACON
Sun 01:57:12 PM 28.8667 -81.9833 156° South 162 186 5,100  Level Orlando TRACON
Sun 01:58:18 PM 28.8167 -81.9500 150° Southeast 165 190 5,100 50 Level Orlando TRACON
Sun 01:59:12 PM 28.7833 -81.9167 139° Southeast 161 185 5,200  Climbing Orlando TRACON
Sun 02:00:18 PM 28.7500 -81.8833 139° Southeast 165 190 5,100 -476 Descending Orlando TRACON
Sun 02:01:18 PM 28.7000 -81.8500 150° Southeast 184 212 4,200 -789 Descending Orlando TRACON
Sun 02:02:12 PM 28.6667 -81.8333 156° South 183 211 3,600 -579 Descending Orlando TRACON
Sun 02:03:12 PM 28.6333 -81.8000 139° Southeast 183 211 3,100 -476 Descending Orlando TRACON
Sun 02:04:18 PM 28.5833 -81.7500 139° Southeast 173 199 2,600 -550 Descending Orlando TRACON
Sun 02:05:12 PM 28.5667 -81.7167 120° Southeast 178 205 2,000 -316 Descending Orlando TRACON
Sun 02:06:12 PM 28.5333 -81.6833 139° Southeast 154 177 2,000  Level Orlando TRACON
Sun 02:07:13 PM 28.5000 -81.6333 127° Southeast 150 173 2,000  Level Orlando TRACON
Sun 02:08:13 PM 28.4667 -81.6000 139° Southeast 154 177 2,000 48 Level Orlando TRACON
Sun 02:09:19 PM 28.4333 -81.5667 139° Southeast 148 170 2,100  Climbing Orlando TRACON
Sun 02:10:19 PM 28.4167 -81.5333 120° Southeast 152 175 2,000  Descending Orlando TRACON
Sun 02:11:19 PM 28.3833 -81.5000 139° Southeast 149 171 2,100 -429 Climbing Orlando TRACON
Sun 02:12:25 PM 28.3333 -81.4667 150° Southeast 181 208 1,100 -843 Descending Orlando TRACON
Sun 02:13:20 PM 28.3000 -81.4500 156° South 132 152 400 -764 Descending Orlando TRACON
Sun 02:15:00 PM 28.2833 -81.4333 139° Southeast  Level FlightAware Approximate

Login

Don't have an account? Register now (free) for customized features, flight alerts, and more!